createdAt,value
2018-02-11T00:02:23.158Z,6.16
2018-02-11T00:04:57.076Z,6.24
2018-02-11T00:07:29.923Z,6.30
2018-02-11T00:10:02.825Z,6.25
2018-02-11T00:12:35.674Z,6.23
2018-02-11T00:15:08.709Z,6.29
2018-02-11T00:17:42.503Z,6.31
2018-02-11T00:20:15.514Z,6.27
2018-02-11T00:22:48.338Z,6.26
2018-02-11T00:25:21.397Z,6.11
2018-02-11T00:27:55.110Z,6.06
2018-02-11T00:30:28.000Z,5.95
2018-02-11T00:33:00.963Z,5.83
2018-02-11T00:35:34.121Z,5.62
2018-02-11T00:38:09.679Z,5.50
2018-02-11T00:40:42.769Z,5.43
2018-02-11T00:43:15.782Z,5.29
2018-02-11T00:45:49.603Z,5.28
2018-02-11T00:48:22.642Z,5.20
2018-02-11T00:50:55.656Z,5.09
2018-02-11T00:53:28.650Z,5.05
2018-02-11T00:56:01.708Z,5.02
2018-02-11T00:58:34.696Z,5.02
2018-02-11T01:01:07.834Z,5.04
2018-02-11T01:03:40.848Z,5.04
2018-02-11T01:06:13.641Z,5.03
2018-02-11T01:08:46.556Z,4.99
2018-02-11T01:11:19.590Z,4.95
2018-02-11T01:13:52.430Z,4.93
2018-02-11T01:16:25.314Z,4.90
2018-02-11T01:18:58.226Z,4.77
2018-02-11T01:21:31.209Z,4.78
2018-02-11T01:24:03.960Z,4.77
2018-02-11T01:26:36.886Z,4.58
2018-02-11T01:29:09.690Z,4.73
2018-02-11T01:31:42.601Z,4.80
2018-02-11T01:34:15.485Z,4.76
2018-02-11T01:36:48.577Z,4.73
2018-02-11T01:39:21.566Z,4.72
2018-02-11T01:41:54.642Z,4.69
2018-02-11T01:44:27.635Z,4.70
2018-02-11T01:47:00.731Z,4.63
2018-02-11T01:49:34.481Z,4.65
2018-02-11T01:52:07.931Z,4.39
2018-02-11T01:54:40.980Z,4.58
2018-02-11T01:57:13.920Z,4.62
2018-02-11T01:59:46.838Z,4.21
2018-02-11T02:02:19.810Z,4.06
2018-02-11T02:04:53.477Z,4.07
2018-02-11T02:07:27.345Z,4.33
2018-02-11T02:10:00.241Z,4.38
2018-02-11T02:12:33.177Z,4.31
2018-02-11T02:15:06.243Z,4.40
2018-02-11T02:17:39.231Z,4.46
2018-02-11T02:20:12.145Z,4.28
2018-02-11T02:22:45.185Z,4.25
2018-02-11T02:25:18.009Z,4.47
2018-02-11T02:27:51.096Z,4.42
2018-02-11T02:30:24.515Z,4.23
2018-02-11T02:32:57.606Z,4.46
2018-02-11T02:35:31.987Z,4.20
2018-02-11T02:38:04.980Z,4.48
2018-02-11T02:40:37.725Z,4.49
2018-02-11T02:43:10.685Z,4.49
2018-02-11T02:45:43.467Z,4.34
2018-02-11T02:48:16.419Z,4.00
2018-02-11T02:50:50.482Z,4.29
2018-02-11T02:53:23.346Z,4.16
2018-02-11T02:55:56.348Z,4.22
2018-02-11T02:58:29.318Z,4.25
2018-02-11T03:01:02.314Z,4.53
2018-02-11T03:03:35.177Z,4.10
2018-02-11T03:06:08.626Z,4.39
2018-02-11T03:08:41.598Z,4.53
2018-02-11T03:11:15.161Z,4.51
2018-02-11T03:13:48.091Z,4.30
2018-02-11T03:16:22.330Z,4.07
2018-02-11T03:18:55.295Z,4.33
2018-02-11T03:21:28.308Z,4.47
2018-02-11T03:24:00.807Z,4.51
2018-02-11T03:26:33.319Z,4.42
2018-02-11T03:29:05.825Z,3.93
2018-02-11T03:31:38.726Z,4.06
2018-02-11T03:34:12.023Z,4.27
2018-02-11T03:36:44.998Z,4.47
2018-02-11T03:39:17.508Z,4.46
2018-02-11T03:41:50.074Z,4.67
2018-02-11T03:44:22.581Z,4.48
2018-02-11T03:46:55.086Z,4.74
2018-02-11T03:49:27.591Z,5.02
2018-02-11T03:52:00.151Z,4.78
2018-02-11T03:54:32.714Z,4.61
2018-02-11T03:57:05.227Z,4.55
2018-02-11T03:59:37.755Z,4.66
2018-02-11T04:02:10.267Z,4.73
2018-02-11T04:04:42.756Z,4.82
2018-02-11T04:07:15.302Z,4.81
2018-02-11T04:09:47.785Z,4.67
2018-02-11T04:12:20.298Z,4.37
2018-02-11T04:14:52.804Z,4.64
2018-02-11T04:17:25.315Z,4.57
2018-02-11T04:19:57.816Z,4.63
2018-02-11T04:22:30.332Z,4.61
2018-02-11T04:25:02.838Z,4.68
2018-02-11T04:27:35.357Z,4.62
2018-02-11T04:30:07.856Z,4.75
2018-02-11T04:32:40.432Z,4.46
2018-02-11T04:35:12.931Z,4.62
2018-02-11T04:37:45.454Z,4.87
2018-02-11T04:40:17.947Z,4.82
2018-02-11T04:42:50.466Z,4.54
2018-02-11T04:45:22.960Z,4.30
2018-02-11T04:47:55.468Z,4.39
2018-02-11T04:50:27.963Z,4.76
2018-02-11T04:53:00.479Z,4.76
2018-02-11T04:55:32.973Z,4.71
2018-02-11T04:58:05.496Z,4.69
2018-02-11T05:00:37.984Z,4.87
2018-02-11T05:03:10.500Z,5.04
2018-02-11T05:05:42.990Z,4.41
2018-02-11T05:08:15.499Z,4.65
2018-02-11T05:10:47.986Z,4.62
2018-02-11T05:13:20.514Z,4.68
2018-02-11T05:15:53.009Z,4.53
2018-02-11T05:18:27.270Z,4.48
2018-02-11T05:20:59.768Z,4.40
2018-02-11T05:23:34.655Z,4.15
2018-02-11T05:26:07.860Z,4.73
2018-02-11T05:28:40.388Z,4.37
2018-02-11T05:31:12.958Z,4.96
2018-02-11T05:33:45.522Z,5.03
2018-02-11T05:36:18.011Z,4.81
2018-02-11T05:38:50.530Z,4.86
2018-02-11T05:41:23.074Z,4.76
2018-02-11T05:43:55.608Z,4.94
2018-02-11T05:46:28.111Z,4.80
2018-02-11T05:49:00.651Z,4.52
2018-02-11T05:51:33.153Z,4.75
2018-02-11T05:54:05.701Z,4.79
2018-02-11T05:56:38.190Z,4.82
2018-02-11T05:59:10.709Z,4.91
2018-02-11T06:01:43.294Z,4.70
2018-02-11T06:04:15.834Z,5.11
2018-02-11T06:06:48.327Z,5.06
2018-02-11T06:09:20.872Z,4.91
2018-02-11T06:11:53.416Z,4.71
2018-02-11T06:14:25.934Z,4.76
2018-02-11T06:16:58.465Z,4.79
2018-02-11T06:19:30.985Z,4.66
2018-02-11T06:22:03.507Z,4.97
2018-02-11T06:24:36.076Z,4.63
2018-02-11T06:27:08.627Z,4.77
2018-02-11T06:29:41.115Z,4.65
2018-02-11T06:32:13.653Z,4.75
2018-02-11T06:34:46.181Z,4.97
2018-02-11T06:37:18.701Z,4.67
2018-02-11T06:39:51.204Z,4.37
2018-02-11T06:42:23.738Z,4.52
2018-02-11T06:44:56.243Z,4.40
2018-02-11T06:47:28.761Z,4.57
2018-02-11T06:50:01.248Z,4.23
2018-02-11T06:52:33.763Z,4.37
2018-02-11T06:55:06.266Z,4.19
2018-02-11T06:57:38.791Z,4.19
2018-02-11T07:00:11.314Z,4.21
2018-02-11T07:02:43.800Z,4.42
2018-02-11T07:05:16.292Z,4.54
2018-02-11T07:07:48.833Z,4.53
2018-02-11T07:10:21.681Z,4.54
2018-02-11T07:12:54.191Z,4.20
2018-02-11T07:15:26.707Z,4.27
2018-02-11T07:17:59.237Z,4.01
2018-02-11T07:20:31.743Z,4.02
2018-02-11T07:23:04.256Z,4.17
2018-02-11T07:25:36.808Z,4.03
2018-02-11T07:28:09.329Z,4.03
2018-02-11T07:30:41.822Z,4.04
2018-02-11T07:33:14.348Z,3.99
2018-02-11T07:35:46.856Z,4.11
2018-02-11T07:38:19.355Z,3.90
2018-02-11T07:40:51.856Z,3.78
2018-02-11T07:43:24.450Z,3.67
2018-02-11T07:45:56.947Z,3.98
2018-02-11T07:48:29.476Z,3.80
2018-02-11T07:51:02.001Z,4.00
2018-02-11T07:53:34.530Z,3.93
2018-02-11T07:56:07.024Z,4.27
2018-02-11T07:58:39.537Z,4.23
2018-02-11T08:01:12.031Z,4.46
2018-02-11T08:03:44.598Z,4.35
2018-02-11T08:06:17.066Z,4.34
2018-02-11T08:08:49.570Z,4.13
2018-02-11T08:11:24.018Z,4.21
2018-02-11T08:13:56.619Z,4.48
2018-02-11T08:16:29.116Z,4.15
2018-02-11T08:19:01.817Z,4.57
2018-02-11T08:21:34.350Z,4.41
2018-02-11T08:24:06.864Z,3.79
2018-02-11T08:26:39.372Z,4.21
2018-02-11T08:29:11.930Z,4.02
2018-02-11T08:31:44.427Z,4.10
2018-02-11T08:34:16.957Z,3.99
2018-02-11T08:36:49.442Z,4.30
2018-02-11T08:39:21.966Z,4.11
2018-02-11T08:41:54.473Z,4.33
2018-02-11T08:44:27.022Z,4.61
2018-02-11T08:46:59.534Z,4.57
2018-02-11T08:49:32.080Z,4.45
2018-02-11T08:52:04.594Z,4.64
2018-02-11T08:54:37.135Z,4.45
2018-02-11T08:57:09.629Z,4.61
2018-02-11T08:59:42.146Z,4.51
2018-02-11T09:02:15.522Z,4.38
2018-02-11T09:04:48.048Z,4.20
2018-02-11T09:07:20.730Z,4.55
2018-02-11T09:09:53.268Z,4.58
2018-02-11T09:12:25.775Z,4.54
2018-02-11T09:14:59.392Z,4.17
2018-02-11T09:17:31.898Z,3.85
2018-02-11T09:20:04.442Z,4.19
2018-02-11T09:22:37.414Z,4.73
2018-02-11T09:25:09.978Z,4.86
2018-02-11T09:27:42.649Z,4.84
2018-02-11T09:30:15.183Z,4.61
2018-02-11T09:32:47.717Z,4.30
2018-02-11T09:35:20.237Z,4.48
2018-02-11T09:37:52.925Z,4.90
2018-02-11T09:40:25.438Z,4.83
2018-02-11T09:42:57.974Z,4.74
2018-02-11T09:45:30.473Z,4.69
2018-02-11T09:48:02.978Z,4.81
2018-02-11T09:50:35.475Z,4.72
2018-02-11T09:53:07.993Z,4.89
2018-02-11T09:55:40.496Z,4.63
2018-02-11T09:58:13.014Z,5.02
2018-02-11T10:00:45.504Z,5.07
2018-02-11T10:03:18.529Z,4.96
2018-02-11T10:05:51.034Z,4.99
2018-02-11T10:08:23.534Z,4.52
2018-02-11T10:10:56.036Z,4.82
2018-02-11T10:13:28.547Z,4.98
2018-02-11T10:16:01.345Z,5.24
2018-02-11T10:18:33.855Z,4.78
2018-02-11T10:21:06.352Z,4.92
2018-02-11T10:23:38.863Z,4.91
2018-02-11T10:26:11.376Z,5.05
2018-02-11T10:28:43.884Z,4.92
2018-02-11T10:31:16.368Z,4.69
2018-02-11T10:33:48.883Z,5.09
2018-02-11T10:36:21.407Z,5.10
2018-02-11T10:38:53.957Z,4.81
2018-02-11T10:41:26.460Z,4.84
2018-02-11T10:43:58.971Z,5.22
2018-02-11T10:46:31.464Z,5.09
2018-02-11T10:49:03.981Z,5.04
2018-02-11T10:51:36.927Z,5.29
2018-02-11T10:54:09.538Z,5.37
2018-02-11T10:56:42.057Z,5.19
2018-02-11T10:59:14.599Z,5.21
2018-02-11T11:01:47.202Z,5.11
2018-02-11T11:04:19.732Z,5.32
2018-02-11T11:06:52.225Z,5.42
2018-02-11T11:09:24.742Z,5.29
2018-02-11T11:11:57.243Z,5.40
2018-02-11T11:14:29.815Z,5.57
2018-02-11T11:17:02.311Z,5.38
2018-02-11T11:19:34.831Z,5.44
2018-02-11T11:22:07.318Z,5.49
2018-02-11T11:24:39.844Z,5.48
2018-02-11T11:27:12.372Z,5.60
2018-02-11T11:29:44.909Z,5.41
2018-02-11T11:32:17.418Z,5.66
2018-02-11T11:34:49.933Z,5.81
2018-02-11T11:37:22.472Z,5.86
2018-02-11T11:39:55.003Z,6.00
2018-02-11T11:42:27.547Z,6.00
2018-02-11T11:45:00.098Z,5.95
2018-02-11T11:47:32.597Z,6.07
2018-02-11T11:50:05.122Z,6.11
2018-02-11T11:52:37.625Z,6.39
2018-02-11T11:55:10.127Z,6.13
2018-02-11T11:57:42.614Z,6.27
2018-02-11T12:00:15.417Z,5.93
2018-02-11T12:02:47.916Z,5.83
2018-02-11T12:05:20.423Z,5.84
2018-02-11T12:07:52.984Z,6.05
2018-02-11T12:10:25.544Z,6.04
2018-02-11T12:12:58.036Z,5.78
2018-02-11T12:15:30.564Z,6.11
2018-02-11T12:18:03.064Z,5.98
2018-02-11T12:20:35.694Z,6.05
2018-02-11T12:23:08.241Z,5.95
2018-02-11T12:25:40.759Z,5.70
2018-02-11T12:28:14.216Z,5.47
2018-02-11T12:30:46.727Z,6.14
2018-02-11T12:33:19.284Z,6.22
2018-02-11T12:35:51.804Z,6.48
2018-02-11T12:38:24.290Z,6.18
2018-02-11T12:40:56.796Z,6.07
2018-02-11T12:43:29.287Z,6.11
2018-02-11T12:46:01.804Z,6.21
2018-02-11T12:48:34.323Z,6.29
2018-02-11T12:51:06.916Z,6.42
2018-02-11T12:53:40.243Z,6.30
2018-02-11T12:56:12.752Z,6.39
2018-02-11T12:58:45.238Z,6.18
2018-02-11T13:01:17.777Z,6.29
2018-02-11T13:03:50.276Z,6.46
2018-02-11T13:06:22.775Z,6.34
2018-02-11T13:08:55.264Z,6.69
2018-02-11T13:11:27.779Z,6.54
2018-02-11T13:14:00.268Z,6.46
2018-02-11T13:16:32.794Z,6.63
2018-02-11T13:19:05.281Z,6.68
2018-02-11T13:21:37.800Z,6.81
2018-02-11T13:24:10.303Z,6.57
2018-02-11T13:26:42.808Z,6.86
2018-02-11T13:29:15.367Z,6.86
2018-02-11T13:31:47.888Z,6.94
2018-02-11T13:34:20.407Z,6.84
2018-02-11T13:36:52.898Z,6.86
2018-02-11T13:39:25.407Z,6.91
2018-02-11T13:41:57.897Z,6.84
2018-02-11T13:44:30.403Z,6.91
2018-02-11T13:47:02.881Z,6.58
2018-02-11T13:49:35.395Z,6.72
2018-02-11T13:52:07.991Z,6.69
2018-02-11T13:54:40.491Z,6.77
2018-02-11T13:57:12.990Z,6.77
2018-02-11T13:59:45.490Z,6.81
2018-02-11T14:02:17.981Z,6.97
2018-02-11T14:04:50.493Z,6.89
2018-02-11T14:07:22.984Z,6.78
2018-02-11T14:09:55.508Z,6.83
2018-02-11T14:12:27.992Z,7.04
2018-02-11T14:15:00.506Z,7.08
2018-02-11T14:17:33.008Z,6.98
2018-02-11T14:20:05.597Z,6.99
2018-02-11T14:22:38.145Z,6.88
2018-02-11T14:25:10.663Z,7.38
2018-02-11T14:27:43.164Z,7.27
2018-02-11T14:30:15.683Z,7.30
2018-02-11T14:32:48.174Z,7.24
2018-02-11T14:35:20.687Z,7.03
2018-02-11T14:37:53.181Z,7.04
2018-02-11T14:40:25.685Z,7.07
2018-02-11T14:42:58.244Z,6.88
2018-02-11T14:45:30.778Z,7.25
2018-02-11T14:48:03.565Z,7.23
2018-02-11T14:50:36.125Z,7.31
2018-02-11T14:53:08.606Z,7.22
2018-02-11T14:55:41.145Z,7.13
2018-02-11T14:58:13.632Z,7.00
2018-02-11T15:00:46.156Z,7.11
2018-02-11T15:03:18.648Z,7.01
2018-02-11T15:05:51.172Z,6.77
2018-02-11T15:08:23.660Z,7.04
2018-02-11T15:10:56.168Z,6.91
2018-02-11T15:13:28.651Z,6.94
2018-02-11T15:16:01.164Z,6.86
2018-02-11T15:18:33.647Z,6.73
2018-02-11T15:21:06.186Z,6.93
2018-02-11T15:23:38.676Z,6.79
2018-02-11T15:26:11.200Z,6.96
2018-02-11T15:28:43.685Z,6.91
2018-02-11T15:31:16.185Z,7.04
2018-02-11T15:33:48.680Z,6.90
2018-02-11T15:36:21.191Z,6.90
2018-02-11T15:38:53.700Z,6.79
2018-02-11T15:41:26.215Z,6.76
2018-02-11T15:43:58.717Z,6.66
2018-02-11T15:46:31.227Z,6.55
2018-02-11T15:49:03.703Z,6.58
2018-02-11T15:51:36.257Z,6.85
2018-02-11T15:54:08.758Z,6.91
2018-02-11T15:56:41.317Z,7.04
2018-02-11T15:59:13.817Z,7.15
2018-02-11T16:01:46.327Z,6.71
2018-02-11T16:04:18.815Z,6.53
2018-02-11T16:06:51.323Z,6.50
2018-02-11T16:09:23.804Z,6.89
2018-02-11T16:11:56.308Z,6.59
2018-02-11T16:14:28.811Z,6.25
2018-02-11T16:17:01.329Z,6.27
2018-02-11T16:19:33.830Z,6.51
2018-02-11T16:22:06.397Z,6.58
2018-02-11T16:24:38.885Z,6.73
2018-02-11T16:27:11.413Z,6.80
2018-02-11T16:29:43.910Z,6.66
2018-02-11T16:32:16.415Z,6.76
2018-02-11T16:34:48.923Z,6.58
2018-02-11T16:37:21.433Z,6.44
2018-02-11T16:39:53.947Z,6.38
2018-02-11T16:42:26.468Z,6.56
2018-02-11T16:44:58.966Z,6.31
2018-02-11T16:47:31.469Z,6.26
2018-02-11T16:50:03.968Z,6.28
2018-02-11T16:52:36.476Z,6.58
2018-02-11T16:55:08.971Z,6.58
2018-02-11T16:57:41.483Z,6.59
2018-02-11T17:00:13.968Z,6.40
2018-02-11T17:02:46.485Z,6.33
2018-02-11T17:05:19.126Z,6.35
2018-02-11T17:07:51.639Z,6.38
2018-02-11T17:10:24.171Z,6.37
2018-02-11T17:12:56.672Z,6.35
2018-02-11T17:15:29.206Z,6.42
2018-02-11T17:18:01.710Z,6.15
2018-02-11T17:20:34.225Z,6.24
2018-02-11T17:23:06.716Z,6.32
2018-02-11T17:25:39.238Z,6.22
2018-02-11T17:28:11.901Z,6.26
2018-02-11T17:30:44.814Z,6.16
2018-02-11T17:33:17.440Z,6.10
2018-02-11T17:35:50.848Z,6.13
2018-02-11T17:38:23.330Z,6.19
2018-02-11T17:40:55.844Z,6.25
2018-02-11T17:43:28.354Z,6.19
2018-02-11T17:46:00.875Z,6.12
2018-02-11T17:48:33.368Z,6.07
2018-02-11T17:51:05.933Z,6.09
2018-02-11T17:53:38.421Z,6.02
2018-02-11T17:56:10.937Z,6.09
2018-02-11T18:01:22.428Z,6.27
2018-02-11T18:03:54.935Z,6.41
2018-02-11T18:06:27.456Z,6.22
2018-02-11T18:08:59.949Z,6.24
2018-02-11T18:11:32.460Z,5.90
2018-02-11T18:14:04.968Z,6.28
2018-02-11T18:16:37.482Z,6.33
2018-02-11T18:19:09.972Z,6.48
2018-02-11T18:21:42.496Z,6.30
2018-02-11T18:24:15.014Z,6.32
2018-02-11T18:26:47.521Z,6.50
2018-02-11T18:29:20.013Z,6.26
2018-02-11T18:31:54.150Z,6.28
2018-02-11T18:34:26.655Z,6.32
2018-02-11T18:36:59.159Z,6.34
2018-02-11T18:39:31.648Z,6.34
2018-02-11T18:42:04.165Z,6.42
2018-02-11T18:44:36.667Z,6.30
2018-02-11T18:47:09.212Z,6.28
2018-02-11T18:49:41.761Z,6.17
2018-02-11T18:52:14.281Z,6.20
2018-02-11T18:54:46.778Z,6.17
2018-02-11T18:57:19.286Z,6.10
2018-02-11T18:59:51.779Z,5.81
2018-02-11T19:02:24.292Z,5.78
2018-02-11T19:04:56.791Z,5.72
2018-02-11T19:07:29.335Z,5.68
2018-02-11T19:10:01.841Z,5.62
2018-02-11T19:12:34.365Z,5.66
2018-02-11T19:15:06.850Z,5.64
2018-02-11T19:17:39.365Z,5.63
2018-02-11T19:20:12.120Z,5.67
2018-02-11T19:22:46.019Z,5.69
2018-02-11T19:25:18.518Z,5.60
2018-02-11T19:27:51.034Z,5.68
2018-02-11T19:30:23.519Z,5.70
2018-02-11T19:32:56.369Z,5.49
2018-02-11T19:35:29.258Z,5.50
2018-02-11T19:38:02.485Z,5.49
2018-02-11T19:40:35.612Z,5.43
2018-02-11T19:43:08.141Z,5.46
2018-02-11T19:45:40.626Z,5.44
2018-02-11T19:48:13.178Z,5.51
2018-02-11T19:50:45.696Z,5.51
2018-02-11T19:53:18.567Z,5.37
2018-02-11T19:55:51.358Z,5.40
2018-02-11T19:58:24.224Z,5.55
2018-02-11T20:00:56.729Z,5.49
2018-02-11T20:03:30.198Z,5.51
2018-02-11T20:06:02.709Z,5.38
2018-02-11T20:08:35.219Z,5.41
2018-02-11T20:11:07.714Z,5.31
2018-02-11T20:13:40.325Z,5.21
2018-02-11T20:16:12.833Z,5.26
2018-02-11T20:18:45.353Z,5.34
2018-02-11T20:21:17.862Z,5.05
2018-02-11T20:23:50.380Z,5.08
2018-02-11T20:26:22.867Z,5.00
2018-02-11T20:28:55.387Z,5.04
2018-02-11T20:31:27.900Z,5.11
2018-02-11T20:34:00.415Z,5.02
2018-02-11T20:36:32.904Z,4.98
2018-02-11T20:39:05.424Z,4.96
2018-02-11T20:41:37.915Z,5.10
2018-02-11T20:44:10.429Z,5.16
2018-02-11T20:46:43.779Z,5.03
2018-02-11T20:49:16.290Z,5.10
2018-02-11T20:51:48.792Z,5.12
2018-02-11T20:54:21.301Z,4.94
2018-02-11T20:56:53.822Z,4.92
2018-02-11T20:59:26.342Z,4.92
2018-02-11T21:01:58.846Z,4.72
2018-02-11T21:04:32.091Z,4.71
2018-02-11T21:07:04.579Z,4.83
2018-02-11T21:09:37.110Z,4.87
2018-02-11T21:12:09.602Z,4.79
2018-02-11T21:14:42.138Z,4.72
2018-02-11T21:17:14.641Z,4.71
2018-02-11T21:19:47.171Z,4.64
2018-02-11T21:22:19.676Z,4.67
2018-02-11T21:24:53.231Z,4.66
2018-02-11T21:27:25.740Z,4.73
2018-02-11T21:29:58.278Z,4.66
2018-02-11T21:32:30.782Z,4.75
2018-02-11T21:35:03.310Z,4.74
2018-02-11T21:37:35.802Z,4.66
2018-02-11T21:40:08.313Z,4.53
2018-02-11T21:42:40.833Z,4.59
2018-02-11T21:45:13.356Z,4.70
2018-02-11T21:47:46.349Z,4.66
2018-02-11T21:50:18.888Z,4.68
2018-02-11T21:55:30.290Z,4.56
2018-02-11T21:58:02.795Z,4.65
2018-02-11T22:00:35.329Z,4.59
2018-02-11T22:03:07.832Z,4.51
2018-02-11T22:05:40.359Z,4.46
2018-02-11T22:08:12.852Z,4.50
2018-02-11T22:10:45.413Z,4.35
2018-02-11T22:13:17.919Z,4.33
2018-02-11T22:15:50.482Z,4.36
2018-02-11T22:18:22.974Z,4.40
2018-02-11T22:21:01.614Z,4.35
2018-02-11T22:23:36.182Z,4.30
2018-02-11T22:26:08.701Z,4.32
2018-02-11T22:28:41.193Z,4.23
2018-02-11T22:31:13.787Z,4.34
2018-02-11T22:33:46.345Z,4.43
2018-02-11T22:36:18.867Z,4.28
2018-02-11T22:38:52.269Z,4.30
2018-02-11T22:41:24.797Z,4.36
2018-02-11T22:43:57.284Z,4.29
2018-02-11T22:46:29.794Z,4.26
2018-02-11T22:49:02.291Z,4.21
2018-02-11T22:51:34.796Z,4.28
2018-02-11T22:54:07.283Z,4.28
2018-02-11T22:56:39.809Z,4.30
2018-02-11T22:59:12.302Z,4.29
2018-02-11T23:01:44.815Z,4.31
2018-02-11T23:04:17.302Z,4.41
2018-02-11T23:06:49.825Z,4.19
2018-02-11T23:09:22.316Z,4.08
2018-02-11T23:11:54.843Z,4.18
2018-02-11T23:14:27.324Z,4.29
2018-02-11T23:16:59.841Z,4.33
2018-02-11T23:19:44.106Z,4.22
2018-02-11T23:22:16.625Z,4.23
2018-02-11T23:24:49.119Z,4.25
2018-02-11T23:27:21.636Z,4.18
2018-02-11T23:29:54.132Z,4.24
2018-02-11T23:32:26.652Z,4.23
2018-02-11T23:34:59.148Z,4.12
2018-02-11T23:37:31.685Z,4.07
2018-02-11T23:40:04.172Z,4.10
2018-02-11T23:42:36.683Z,3.93
2018-02-11T23:45:09.187Z,4.10
2018-02-11T23:47:41.757Z,4.09
2018-02-11T23:50:14.257Z,4.24
2018-02-11T23:52:46.782Z,3.94
2018-02-11T23:55:19.278Z,4.18
2018-02-11T23:57:51.797Z,4.18
